Flight Track Log - Related Links

Times and Time Zones

All times are in EDT time to prevent confusion due to time zone crossing. See the DLA1866 flight status page for this flight to view local times or setup timezone preferences in your user account.

Time Position Orientation Groundspeed Altitude Reporting Facility
EDT Latitude Longitude Course Direction KTS MPH feet Rate Location/Type
Wed 03:49:00 PM 48.0648 11.4418 219° Southwest  Level Estimated
Wed 03:50:00 PM 48.0234 11.3929 218° Southwest  Level Estimated
Wed 03:51:00 PM 47.9820 11.3441 218° Southwest  Level Estimated
Wed 03:52:00 PM 47.9406 11.2954 218° Southwest  Level Estimated
Wed 03:53:00 PM 47.8992 11.2467 218° Southwest  Level Estimated
Wed 03:54:00 PM 47.8577 11.1982 218° Southwest  Level Estimated
Wed 03:55:00 PM 47.8163 11.1497 218° Southwest  Level Estimated
Wed 03:56:00 PM 47.7434 11.0647 218° Southwest  Level Estimated
Wed 03:57:00 PM 47.6704 10.9800 218° Southwest  Level Estimated
Wed 03:58:00 PM 47.5974 10.8955 218° Southwest  Level Estimated
Wed 03:59:00 PM 47.5243 10.8112 218° Southwest  Level Estimated
Wed 04:00:00 PM 47.4511 10.7272 218° Southwest  Level Estimated
Wed 04:01:00 PM 47.3779 10.6433 218° Southwest  Level Estimated
Wed 04:02:00 PM 47.3047 10.5598 218° Southwest  Level Estimated
Wed 04:03:00 PM 47.2313 10.4764 218° Southwest  Level Estimated
Wed 04:04:00 PM 47.1579 10.3933 218° Southwest  Level Estimated
Wed 04:05:00 PM 47.0845 10.3104 218° Southwest  Level Estimated
Wed 04:06:00 PM 47.0110 10.2278 217° Southwest  Level Estimated
Wed 04:07:00 PM 46.9374 10.1454 217° Southwest  Level Estimated
Wed 04:08:00 PM 46.8638 10.0632 217° Southwest  Level Estimated
Wed 04:09:00 PM 46.7901 9.9812 217° Southwest  Level Estimated
Wed 04:10:00 PM 46.7163 9.8994 217° Southwest  Level Estimated
Wed 04:11:00 PM 46.6425 9.8179 217° Southwest  Level Estimated
Wed 04:12:00 PM 46.5687 9.7366 217° Southwest  Level Estimated
Wed 04:13:00 PM 46.4948 9.6555 217° Southwest  Level Estimated
Wed 04:14:00 PM 46.4208 9.5747 217° Southwest  Level Estimated
Wed 04:15:00 PM 46.3467 9.4940 217° Southwest  Level Estimated
Wed 04:16:00 PM 46.2726 9.4136 217° Southwest  Level Estimated
Wed 04:17:00 PM 46.1985 9.3334 217° Southwest  Level Estimated
Wed 04:18:00 PM 46.1243 9.2534 217° Southwest  Level Estimated
Wed 04:19:00 PM 46.0500 9.1736 217° Southwest  Level Estimated
Wed 04:20:00 PM 45.9757 9.0941 217° Southwest  Level Estimated
Wed 04:21:00 PM 45.9013 9.0147 217° Southwest  Level Estimated
Wed 04:22:00 PM 45.8269 8.9356 217° Southwest  Level Estimated
Wed 04:23:00 PM 45.7524 8.8566 216° Southwest  Level Estimated
Wed 04:24:00 PM 45.6779 8.7779 216° Southwest  Level Estimated
Wed 04:25:00 PM 45.6306 8.7281 216° Southwest  Level Estimated
Wed 04:26:00 PM 45.6306 8.7281 170° South  Level Estimated
Wed 04:27:00 PM 45.6306 8.7281 170° South  Level Estimated
Wed 04:28:00 PM 45.6306 8.7281 170° South  Level Estimated
Wed 04:29:00 PM 45.6306 8.7281 170° South  Level Estimated
Wed 04:30:00 PM 45.6306 8.7281 170° South  Level Estimated
Wed 04:31:00 PM 45.6306 8.7281 170° South  Level Estimated
Wed 04:32:00 PM 45.6306 8.7281 170° South  Level Estimated
Wed 04:33:00 PM 45.6306 8.7281 170° South  Level Estimated
Wed 04:34:00 PM 45.6306 8.7281 170° South  Level Estimated
Wed 04:35:00 PM 45.6306 8.7281 170° South  Level Estimated

Login

Don't have an account? Register now (free) for customized features, flight alerts, and more!